createdAt,value
2022-08-29T00:02:15.410Z,58.62
2022-08-29T00:04:49.390Z,60.45
2022-08-29T00:07:19.131Z,61.08
2022-08-29T00:09:52.845Z,60.20
2022-08-29T00:12:25.462Z,60.18
2022-08-29T00:14:59.979Z,60.33
2022-08-29T00:17:29.277Z,62.05
2022-08-29T00:20:05.948Z,61.46
2022-08-29T00:22:36.342Z,60.11
2022-08-29T00:25:09.727Z,61.28
2022-08-29T00:27:40.636Z,61.78
2022-08-29T00:30:17.489Z,61.93
2022-08-29T00:32:47.728Z,60.36
2022-08-29T00:35:21.947Z,62.94
2022-08-29T00:37:55.122Z,62.42
2022-08-29T00:40:28.675Z,61.14
2022-08-29T00:43:00.681Z,62.73
2022-08-29T00:45:32.934Z,62.66
2022-08-29T00:48:15.113Z,63.37
2022-08-29T00:50:53.123Z,62.60
2022-08-29T00:53:29.999Z,63.06
2022-08-29T00:56:00.546Z,62.08
2022-08-29T00:58:32.659Z,62.05
2022-08-29T01:01:05.260Z,61.95
2022-08-29T01:03:36.039Z,61.90
2022-08-29T01:06:14.660Z,62.74
2022-08-29T01:08:43.305Z,61.44
2022-08-29T01:11:32.973Z,60.96
2022-08-29T01:14:02.222Z,61.32
2022-08-29T01:16:31.977Z,61.02
2022-08-29T01:19:06.029Z,60.64
2022-08-29T01:21:44.364Z,60.65
2022-08-29T01:24:15.529Z,60.34
2022-08-29T01:26:47.488Z,60.93
2022-08-29T01:29:16.058Z,60.55
2022-08-29T01:31:56.679Z,60.83
2022-08-29T01:34:29.767Z,61.85
2022-08-29T01:37:01.004Z,61.06
2022-08-29T01:39:32.904Z,60.11
2022-08-29T01:42:05.270Z,60.35
2022-08-29T01:44:33.694Z,60.81
2022-08-29T01:47:05.311Z,60.47
2022-08-29T01:49:37.798Z,61.01
2022-08-29T01:52:10.078Z,60.74
2022-08-29T01:54:41.309Z,61.05
2022-08-29T01:57:13.074Z,61.56
2022-08-29T01:59:44.445Z,61.15
2022-08-29T02:02:24.248Z,61.95
2022-08-29T02:04:56.468Z,62.44
2022-08-29T02:07:25.576Z,62.19
2022-08-29T02:09:55.320Z,62.16
2022-08-29T02:12:23.337Z,61.60
2022-08-29T02:14:52.146Z,61.56
2022-08-29T02:17:21.073Z,61.25
2022-08-29T02:19:49.139Z,61.22
2022-08-29T02:22:19.449Z,60.81
2022-08-29T02:24:49.456Z,60.60
2022-08-29T02:27:18.032Z,60.74
2022-08-29T02:29:46.177Z,60.91
2022-08-29T02:32:18.083Z,60.87
2022-08-29T02:34:49.256Z,61.55
2022-08-29T02:37:21.356Z,61.16
2022-08-29T02:39:50.988Z,61.17
2022-08-29T02:42:24.093Z,61.56
2022-08-29T02:45:01.899Z,61.11
2022-08-29T02:47:38.986Z,61.53
2022-08-29T02:50:11.359Z,61.61
2022-08-29T02:52:45.540Z,61.71
2022-08-29T02:55:18.849Z,61.18
2022-08-29T02:57:50.822Z,61.73
2022-08-29T03:00:23.377Z,60.81
2022-08-29T03:02:53.708Z,61.62
2022-08-29T03:05:23.820Z,61.75
2022-08-29T03:07:52.624Z,61.99
2022-08-29T03:10:21.741Z,62.76
2022-08-29T03:12:50.566Z,62.03
2022-08-29T03:15:19.864Z,62.19
2022-08-29T03:17:48.332Z,62.57
2022-08-29T03:20:18.672Z,62.95
2022-08-29T03:22:47.887Z,63.85
2022-08-29T03:25:16.511Z,64.43
2022-08-29T03:27:44.820Z,63.55
2022-08-29T03:30:15.141Z,63.06
2022-08-29T03:32:44.386Z,64.76
2022-08-29T03:35:16.103Z,64.43
2022-08-29T03:37:44.202Z,64.80
2022-08-29T03:40:13.429Z,64.28
2022-08-29T03:42:43.125Z,63.41
2022-08-29T03:45:14.057Z,64.23
2022-08-29T03:47:43.032Z,63.53
2022-08-29T03:50:13.141Z,64.08
2022-08-29T03:52:44.378Z,64.22
2022-08-29T03:55:13.128Z,63.41
2022-08-29T03:57:41.521Z,63.98
2022-08-29T04:00:13.820Z,63.07
2022-08-29T04:02:45.257Z,63.06
2022-08-29T04:05:15.374Z,64.14
2022-08-29T04:07:57.404Z,63.81
2022-08-29T04:10:32.895Z,63.40
2022-08-29T04:13:02.322Z,62.58
2022-08-29T04:15:34.974Z,64.46
2022-08-29T04:18:07.093Z,63.00
2022-08-29T04:20:38.655Z,62.88
2022-08-29T04:23:08.095Z,62.74
2022-08-29T04:25:37.768Z,63.28
2022-08-29T04:28:08.718Z,63.07
2022-08-29T04:30:40.538Z,63.59
2022-08-29T04:33:09.388Z,63.35
2022-08-29T04:35:47.400Z,63.19
2022-08-29T04:38:16.639Z,63.03
2022-08-29T04:40:45.163Z,62.66
2022-08-29T04:43:15.164Z,62.99
2022-08-29T04:45:43.956Z,63.94
2022-08-29T04:48:11.907Z,62.82
2022-08-29T04:50:46.621Z,63.65
2022-08-29T04:53:18.332Z,62.76
2022-08-29T04:56:06.522Z,64.01
2022-08-29T04:58:44.855Z,62.47
2022-08-29T05:01:19.827Z,63.09
2022-08-29T05:03:57.059Z,62.61
2022-08-29T05:06:33.048Z,62.89
2022-08-29T05:09:13.068Z,61.74
2022-08-29T05:11:43.758Z,61.87
2022-08-29T05:14:17.946Z,61.28
2022-08-29T05:16:58.367Z,61.15
2022-08-29T05:19:34.606Z,60.21
2022-08-29T05:22:07.308Z,61.06
2022-08-29T05:24:37.908Z,62.71
2022-08-29T05:27:18.751Z,61.14
2022-08-29T05:29:49.610Z,61.12
2022-08-29T05:32:24.813Z,60.82
2022-08-29T05:34:56.331Z,60.98
2022-08-29T05:37:25.764Z,60.60
2022-08-29T05:39:54.187Z,60.05
2022-08-29T05:42:23.014Z,60.46
2022-08-29T05:44:52.105Z,60.13
2022-08-29T05:47:20.634Z,59.90
2022-08-29T05:49:49.324Z,59.18
2022-08-29T05:52:20.653Z,59.48
2022-08-29T05:54:48.772Z,59.15
2022-08-29T05:57:20.552Z,58.47
2022-08-29T05:59:50.236Z,58.75
2022-08-29T06:02:19.150Z,58.42
2022-08-29T06:04:47.874Z,58.09
2022-08-29T06:07:15.810Z,58.18
2022-08-29T06:09:44.610Z,57.50
2022-08-29T06:12:15.581Z,57.43
2022-08-29T06:14:50.555Z,57.50
2022-08-29T06:17:19.198Z,57.26
2022-08-29T06:19:50.434Z,57.48
2022-08-29T06:22:22.595Z,56.95
2022-08-29T06:24:55.067Z,56.90
2022-08-29T06:27:28.963Z,56.83
2022-08-29T06:30:01.751Z,57.48
2022-08-29T06:32:30.218Z,56.93
2022-08-29T06:35:01.016Z,56.29
2022-08-29T06:37:31.253Z,56.02
2022-08-29T06:41:12.073Z,55.69
2022-08-29T06:55:42.309Z,54.00
2022-08-29T07:39:18.748Z,49.95
2022-08-29T07:42:28.108Z,49.95
2022-08-29T07:44:56.268Z,49.57
2022-08-29T07:47:27.229Z,49.25
2022-08-29T07:49:56.187Z,49.21
2022-08-29T07:52:45.460Z,48.92
2022-08-29T07:55:22.335Z,48.32
2022-08-29T07:58:04.954Z,48.53
2022-08-29T08:00:34.278Z,47.99
2022-08-29T08:03:24.728Z,47.59
2022-08-29T08:05:54.055Z,47.47
2022-08-29T08:08:23.195Z,47.22
2022-08-29T08:11:20.725Z,46.88
2022-08-29T08:14:09.520Z,46.66
2022-08-29T08:16:38.736Z,45.95
2022-08-29T08:19:15.756Z,46.34
2022-08-29T08:21:49.694Z,45.80
2022-08-29T08:24:56.041Z,45.74
2022-08-29T08:27:24.512Z,45.43
2022-08-29T08:29:55.572Z,45.23
2022-08-29T08:32:24.920Z,45.11
2022-08-29T08:35:04.197Z,44.48
2022-08-29T08:37:34.128Z,45.74
2022-08-29T08:40:23.269Z,44.78
2022-08-29T08:42:52.493Z,43.96
2022-08-29T08:46:01.614Z,43.66
2022-08-29T08:49:08.268Z,43.87
2022-08-29T08:52:04.419Z,43.08
2022-08-29T08:55:01.763Z,42.59
2022-08-29T08:58:52.994Z,42.34
2022-08-29T09:01:49.884Z,42.25
2022-08-29T09:04:34.143Z,41.07
2022-08-29T09:08:14.990Z,40.67
2022-08-29T09:11:09.636Z,40.89
2022-08-29T09:17:36.419Z,41.74
2022-08-29T09:23:26.475Z,41.59
2022-08-29T09:26:07.057Z,40.73
2022-08-29T09:28:56.636Z,41.41
2022-08-29T09:31:34.266Z,40.96
2022-08-29T09:34:15.272Z,41.62
2022-08-29T09:36:51.813Z,41.94
2022-08-29T09:43:14.211Z,40.49
2022-08-29T09:46:07.336Z,41.14
2022-08-29T09:49:22.867Z,39.71
2022-08-29T09:53:01.245Z,39.69
2022-08-29T11:00:43.893Z,34.48
2022-08-29T11:04:24.536Z,34.90
2022-08-29T11:07:31.644Z,34.29
2022-08-29T11:10:40.821Z,33.72
2022-08-29T11:13:34.310Z,33.12
2022-08-29T12:04:58.814Z,33.13
2022-08-29T12:07:49.170Z,33.73
2022-08-29T12:10:55.664Z,33.24
2022-08-29T12:23:11.214Z,32.97
2022-08-29T12:26:43.880Z,33.72
2022-08-29T12:29:44.491Z,33.30
2022-08-29T12:32:47.090Z,33.00
2022-08-29T12:35:55.766Z,32.45
2022-08-29T12:45:12.517Z,32.77
2022-08-29T13:20:41.132Z,29.49
2022-08-29T13:23:31.343Z,30.19
2022-08-29T13:26:11.977Z,30.36
2022-08-29T13:28:53.872Z,30.49
2022-08-29T13:31:34.863Z,30.33
2022-08-29T13:34:11.039Z,30.36
2022-08-29T13:36:59.271Z,30.35
2022-08-29T13:39:41.598Z,30.70
2022-08-29T13:42:15.560Z,30.39
2022-08-29T13:44:47.527Z,30.58
2022-08-29T13:47:25.095Z,30.06
2022-08-29T13:50:01.385Z,30.09
2022-08-29T13:52:31.636Z,30.40
2022-08-29T13:55:02.749Z,30.49
2022-08-29T13:57:31.743Z,30.05
2022-08-29T13:59:59.842Z,30.49
2022-08-29T14:02:28.764Z,31.09
2022-08-29T14:05:04.121Z,29.76
2022-08-29T14:07:41.400Z,30.28
2022-08-29T14:10:32.546Z,29.68
2022-08-29T14:13:12.387Z,30.30
2022-08-29T14:15:48.755Z,29.90
2022-08-29T14:18:17.206Z,30.07
2022-08-29T14:20:48.386Z,29.85
2022-08-29T14:23:23.151Z,29.37
2022-08-29T14:26:08.669Z,29.19
2022-08-29T14:28:47.972Z,28.94
2022-08-29T14:31:33.443Z,28.63
2022-08-29T14:34:11.188Z,28.04
2022-08-29T14:36:48.324Z,28.50
2022-08-29T14:39:16.577Z,28.30
2022-08-29T14:42:02.682Z,28.03
2022-08-29T14:44:40.930Z,27.26
2022-08-29T14:47:16.124Z,27.37
2022-08-29T14:49:48.633Z,27.77
2022-08-29T14:52:29.887Z,27.59
2022-08-29T14:55:17.159Z,27.25
2022-08-29T14:57:53.598Z,27.53
2022-08-29T15:00:28.662Z,27.82
2022-08-29T15:03:03.471Z,27.99
2022-08-29T15:05:43.002Z,28.43
2022-08-29T15:08:19.360Z,28.91
2022-08-29T15:10:55.542Z,29.33
2022-08-29T15:13:24.225Z,28.99
2022-08-29T15:15:54.186Z,29.02
2022-08-29T15:19:53.380Z,29.14
2022-08-29T15:23:00.349Z,28.91
2022-08-29T15:26:37.403Z,28.74
2022-08-29T15:33:08.322Z,29.45
2022-08-29T15:36:29.855Z,29.26
2022-08-29T15:39:44.842Z,29.51
2022-08-29T15:42:47.533Z,29.43
2022-08-29T15:45:50.862Z,29.19
2022-08-29T15:49:06.985Z,29.23
2022-08-29T15:55:19.692Z,30.54
2022-08-29T15:58:32.318Z,30.73
2022-08-29T16:01:46.099Z,30.78
2022-08-29T16:04:57.773Z,30.64
2022-08-29T16:08:17.657Z,31.20
2022-08-29T16:11:19.817Z,30.97
2022-08-29T16:20:56.695Z,31.46
2022-08-29T16:24:03.238Z,31.40
2022-08-29T16:27:02.533Z,31.44
2022-08-29T16:30:20.406Z,31.81
2022-08-29T16:33:20.369Z,31.77
2022-08-29T16:36:44.865Z,31.54
2022-08-29T16:39:47.602Z,32.35
2022-08-29T16:42:55.385Z,32.11
2022-08-29T16:45:49.462Z,32.53
2022-08-29T16:48:44.674Z,33.61
2022-08-29T16:51:38.655Z,34.73
2022-08-29T16:54:34.568Z,36.48
2022-08-29T16:57:52.945Z,36.43
2022-08-29T17:00:53.207Z,36.19
2022-08-29T17:03:42.218Z,36.68
2022-08-29T17:06:47.873Z,36.13
2022-08-29T17:09:43.874Z,36.88
2022-08-29T17:12:37.696Z,37.10
2022-08-29T17:15:16.646Z,36.83
2022-08-29T17:18:00.041Z,36.89
2022-08-29T17:20:53.682Z,37.40
2022-08-29T17:23:35.563Z,37.41
2022-08-29T17:26:24.629Z,37.70
2022-08-29T17:29:13.099Z,38.13
2022-08-29T17:32:41.464Z,37.56
2022-08-29T17:35:25.948Z,38.02
2022-08-29T17:38:05.867Z,38.05
2022-08-29T17:40:49.094Z,38.24
2022-08-29T17:43:40.668Z,38.38
2022-08-29T17:46:15.299Z,38.22
2022-08-29T17:48:52.205Z,38.28
2022-08-29T17:54:20.843Z,38.67
2022-08-29T17:57:07.691Z,38.62
2022-08-29T17:59:41.457Z,39.51
2022-08-29T18:02:26.334Z,39.45
2022-08-29T18:05:07.376Z,39.17
2022-08-29T18:07:44.467Z,39.88
2022-08-29T18:10:34.696Z,39.62
2022-08-29T18:13:09.928Z,40.16
2022-08-29T18:15:46.372Z,40.44
2022-08-29T18:18:26.713Z,40.62
2022-08-29T18:21:07.480Z,41.74
2022-08-29T18:23:41.824Z,41.14
2022-08-29T18:26:24.332Z,41.41
2022-08-29T18:29:07.065Z,41.59
2022-08-29T18:31:45.632Z,42.47
2022-08-29T18:34:30.212Z,42.45
2022-08-29T18:37:16.589Z,42.77
2022-08-29T18:39:52.816Z,43.85
2022-08-29T18:42:40.428Z,44.58
2022-08-29T18:45:13.941Z,43.86
2022-08-29T18:47:49.003Z,43.73
2022-08-29T18:50:37.298Z,43.63
2022-08-29T18:53:21.136Z,42.97
2022-08-29T18:56:03.628Z,43.47
2022-08-29T18:58:47.044Z,43.03
2022-08-29T19:01:30.450Z,43.29
2022-08-29T19:04:11.966Z,44.06
2022-08-29T19:06:54.991Z,43.05
2022-08-29T19:09:31.788Z,43.93
2022-08-29T19:12:15.487Z,43.71
2022-08-29T19:14:57.590Z,43.68
2022-08-29T19:17:45.478Z,44.31
2022-08-29T19:20:39.828Z,43.62
2022-08-29T19:23:12.100Z,44.47
2022-08-29T19:25:46.591Z,44.67
2022-08-29T19:28:23.788Z,45.19
2022-08-29T19:30:54.695Z,44.19
2022-08-29T19:33:37.449Z,45.23
2022-08-29T19:36:21.703Z,44.49
2022-08-29T19:38:52.913Z,43.83
2022-08-29T19:41:35.080Z,43.68
2022-08-29T19:44:12.867Z,44.11
2022-08-29T19:46:53.457Z,43.96
2022-08-29T19:49:30.866Z,44.47
2022-08-29T19:52:15.016Z,44.75
2022-08-29T19:54:51.459Z,44.96
2022-08-29T19:57:40.827Z,45.33
2022-08-29T20:00:21.929Z,45.31
2022-08-29T20:03:00.015Z,45.11
2022-08-29T20:05:30.992Z,46.02
2022-08-29T20:08:10.646Z,46.45
2022-08-29T20:11:01.660Z,46.60
2022-08-29T20:13:35.770Z,46.29
2022-08-29T20:16:14.337Z,46.38
2022-08-29T20:18:52.927Z,47.54
2022-08-29T20:21:29.576Z,47.28
2022-08-29T20:24:08.091Z,47.81
2022-08-29T20:26:43.247Z,47.84
2022-08-29T20:29:30.386Z,47.89
2022-08-29T20:32:14.827Z,47.20
2022-08-29T20:34:55.643Z,47.38
2022-08-29T20:37:28.824Z,48.26
2022-08-29T20:40:00.384Z,48.65
2022-08-29T20:42:38.824Z,48.45
2022-08-29T20:45:13.259Z,49.12
2022-08-29T20:47:44.635Z,49.31
2022-08-29T20:50:49.768Z,49.69
2022-08-29T20:53:32.584Z,48.69
2022-08-29T20:56:12.707Z,49.36
2022-08-29T20:58:46.838Z,49.47
2022-08-29T21:01:28.464Z,48.82
2022-08-29T21:04:20.984Z,49.44
2022-08-29T21:07:01.777Z,50.34
2022-08-29T21:09:33.353Z,50.53
2022-08-29T21:12:10.275Z,51.81
2022-08-29T21:14:41.206Z,52.06
2022-08-29T21:17:18.361Z,53.08
2022-08-29T21:19:47.042Z,53.94
2022-08-29T21:22:21.680Z,55.10
2022-08-29T21:24:59.306Z,54.12
2022-08-29T21:27:34.613Z,53.13
2022-08-29T21:30:15.716Z,53.46
2022-08-29T21:32:51.037Z,52.62
2022-08-29T21:35:34.278Z,52.19
2022-08-29T21:38:08.104Z,52.53
2022-08-29T21:40:52.897Z,52.43
2022-08-29T21:43:35.044Z,52.51
2022-08-29T21:46:31.701Z,52.37
2022-08-29T21:49:08.476Z,52.41
2022-08-29T21:51:47.481Z,52.67
2022-08-29T21:54:31.605Z,53.40
2022-08-29T21:57:01.282Z,53.47
2022-08-29T21:59:38.603Z,53.66
2022-08-29T22:02:22.416Z,54.25
2022-08-29T22:04:57.117Z,54.56
2022-08-29T22:07:46.861Z,54.70
2022-08-29T22:10:26.687Z,55.42
2022-08-29T22:12:56.282Z,54.55
2022-08-29T22:15:57.089Z,54.30
2022-08-29T22:18:43.297Z,53.15
2022-08-29T22:21:15.410Z,52.85
2022-08-29T22:23:50.145Z,53.12
2022-08-29T22:26:32.710Z,54.19
2022-08-29T22:29:11.666Z,54.07
2022-08-29T22:31:53.518Z,54.42
2022-08-29T22:34:32.888Z,54.40
2022-08-29T22:37:13.192Z,55.66
2022-08-29T22:39:54.684Z,55.06
2022-08-29T22:42:32.756Z,54.90
2022-08-29T22:45:09.660Z,54.11
2022-08-29T22:47:50.776Z,54.98
2022-08-29T22:50:39.167Z,54.34
2022-08-29T22:55:59.273Z,54.27
2022-08-29T22:58:43.716Z,54.28
2022-08-29T23:01:19.434Z,53.34
2022-08-29T23:03:58.211Z,54.61
2022-08-29T23:06:34.602Z,53.84
2022-08-29T23:09:09.682Z,54.74
2022-08-29T23:11:47.747Z,54.70
2022-08-29T23:14:30.625Z,54.07
2022-08-29T23:17:08.480Z,53.79
2022-08-29T23:19:51.902Z,54.39
2022-08-29T23:22:24.444Z,55.58
2022-08-29T23:25:03.317Z,54.80
2022-08-29T23:27:37.910Z,56.42
2022-08-29T23:30:19.203Z,55.23
2022-08-29T23:33:01.137Z,54.47
2022-08-29T23:35:35.886Z,54.95
2022-08-29T23:38:06.806Z,55.97
2022-08-29T23:40:46.414Z,57.29
2022-08-29T23:43:26.024Z,57.44
2022-08-29T23:46:00.980Z,56.83
2022-08-29T23:48:40.600Z,56.48
2022-08-29T23:51:19.076Z,56.00
2022-08-29T23:53:55.232Z,55.33
2022-08-29T23:56:42.626Z,55.41
2022-08-29T23:59:35.592Z,54.99
